sensor_id;sensor_type;location;lat;lon;timestamp;pressure;altitude;pressure_sealevel;temperature;humidity
43707;BME280;61348;53.392;-6.248;2023-01-15T00:01:54;98721.91;;;1.96;90.56
43707;BME280;61348;53.392;-6.248;2023-01-15T00:04:21;98721.41;;;1.94;90.22
43707;BME280;61348;53.392;-6.248;2023-01-15T00:06:48;98729.16;;;1.92;90.62
43707;BME280;61348;53.392;-6.248;2023-01-15T00:09:15;98711.66;;;1.93;90.87
43707;BME280;61348;53.392;-6.248;2023-01-15T00:11:42;98708.94;;;1.93;90.91
43707;BME280;61348;53.392;-6.248;2023-01-15T00:14:08;98703.78;;;1.91;90.52
43707;BME280;61348;53.392;-6.248;2023-01-15T00:16:35;98713.59;;;1.92;90.64
43707;BME280;61348;53.392;-6.248;2023-01-15T00:19:02;98705.06;;;1.94;91.02
43707;BME280;61348;53.392;-6.248;2023-01-15T00:21:30;98708.59;;;1.94;90.77
43707;BME280;61348;53.392;-6.248;2023-01-15T00:23:57;98714.84;;;1.95;91.24
43707;BME280;61348;53.392;-6.248;2023-01-15T00:26:42;98691.41;;;1.94;90.80
43707;BME280;61348;53.392;-6.248;2023-01-15T00:29:28;98711.66;;;1.93;90.85
43707;BME280;61348;53.392;-6.248;2023-01-15T00:31:58;98682.44;;;1.93;91.32
43707;BME280;61348;53.392;-6.248;2023-01-15T00:34:25;98672.66;;;1.92;91.35
43707;BME280;61348;53.392;-6.248;2023-01-15T00:36:53;98670.72;;;1.93;91.43
43707;BME280;61348;53.392;-6.248;2023-01-15T00:39:20;98675.38;;;1.92;91.62
43707;BME280;61348;53.392;-6.248;2023-01-15T00:41:47;98673.47;;;1.93;91.32
43707;BME280;61348;53.392;-6.248;2023-01-15T00:44:13;98653.22;;;1.94;91.72
43707;BME280;61348;53.392;-6.248;2023-01-15T00:46:40;98636.84;;;1.94;91.46
43707;BME280;61348;53.392;-6.248;2023-01-15T00:49:08;98637.63;;;1.94;91.80
43707;BME280;61348;53.392;-6.248;2023-01-15T00:51:35;98631.50;;;1.97;91.71
43707;BME280;61348;53.392;-6.248;2023-01-15T00:54:02;98639.47;;;2.02;91.83
43707;BME280;61348;53.392;-6.248;2023-01-15T00:56:28;98638.00;;;2.05;91.91
43707;BME280;61348;53.392;-6.248;2023-01-15T00:58:55;98623.22;;;2.06;91.69
43707;BME280;61348;53.392;-6.248;2023-01-15T01:01:22;98612.31;;;2.06;91.84
43707;BME280;61348;53.392;-6.248;2023-01-15T01:03:49;98636.63;;;2.11;92.19
43707;BME280;61348;53.392;-6.248;2023-01-15T01:06:19;98627.41;;;2.15;92.12
43707;BME280;61348;53.392;-6.248;2023-01-15T01:08:47;98637.22;;;2.16;91.75
43707;BME280;61348;53.392;-6.248;2023-01-15T01:11:17;98642.31;;;2.18;92.11
43707;BME280;61348;53.392;-6.248;2023-01-15T01:13:44;98649.50;;;2.22;92.29
43707;BME280;61348;53.392;-6.248;2023-01-15T01:19:00;98648.25;;;2.32;92.45
43707;BME280;61348;53.392;-6.248;2023-01-15T01:21:29;98658.94;;;2.37;92.13
43707;BME280;61348;53.392;-6.248;2023-01-15T01:24:00;98660.31;;;2.43;92.14
43707;BME280;61348;53.392;-6.248;2023-01-15T01:26:28;98653.44;;;2.49;92.23
43707;BME280;61348;53.392;-6.248;2023-01-15T01:28:55;98642.19;;;2.51;92.05
43707;BME280;61348;53.392;-6.248;2023-01-15T01:31:23;98640.28;;;2.51;91.92
43707;BME280;61348;53.392;-6.248;2023-01-15T01:33:51;98640.28;;;2.51;91.90
43707;BME280;61348;53.392;-6.248;2023-01-15T01:36:19;98651.63;;;2.53;92.11
43707;BME280;61348;53.392;-6.248;2023-01-15T01:38:47;98653.25;;;2.54;92.37
43707;BME280;61348;53.392;-6.248;2023-01-15T01:41:16;98657.53;;;2.55;92.43
43707;BME280;61348;53.392;-6.248;2023-01-15T01:46:22;98655.25;;;2.57;92.33
43707;BME280;61348;53.392;-6.248;2023-01-15T01:49:10;98663.13;;;2.59;92.43
43707;BME280;61348;53.392;-6.248;2023-01-15T01:51:40;98659.59;;;2.58;92.13
43707;BME280;61348;53.392;-6.248;2023-01-15T01:54:10;98647.53;;;2.59;92.40
43707;BME280;61348;53.392;-6.248;2023-01-15T01:56:38;98684.63;;;2.60;92.60
43707;BME280;61348;53.392;-6.248;2023-01-15T01:59:05;98647.53;;;2.59;92.71
43707;BME280;61348;53.392;-6.248;2023-01-15T02:01:33;98658.00;;;2.57;92.58
43707;BME280;61348;53.392;-6.248;2023-01-15T02:04:01;98658.72;;;2.54;92.51
43707;BME280;61348;53.392;-6.248;2023-01-15T02:06:28;98662.56;;;2.53;92.42
43707;BME280;61348;53.392;-6.248;2023-01-15T02:08:55;98667.59;;;2.51;92.50
43707;BME280;61348;53.392;-6.248;2023-01-15T02:11:22;98655.84;;;2.51;92.99
43707;BME280;61348;53.392;-6.248;2023-01-15T02:16:42;98655.72;;;2.47;92.59
43707;BME280;61348;53.392;-6.248;2023-01-15T02:19:39;98667.81;;;2.46;92.63
43707;BME280;61348;53.392;-6.248;2023-01-15T02:27:46;98648.44;;;2.39;92.79
43707;BME280;61348;53.392;-6.248;2023-01-15T02:30:23;98643.00;;;2.39;93.19
43707;BME280;61348;53.392;-6.248;2023-01-15T02:32:56;98644.16;;;2.38;92.87
43707;BME280;61348;53.392;-6.248;2023-01-15T02:35:28;98641.41;;;2.38;92.82
43707;BME280;61348;53.392;-6.248;2023-01-15T02:38:00;98632.44;;;2.37;93.12
43707;BME280;61348;53.392;-6.248;2023-01-15T02:40:30;98651.19;;;2.39;93.12
43707;BME280;61348;53.392;-6.248;2023-01-15T02:42:58;98630.59;;;2.41;93.42
43707;BME280;61348;53.392;-6.248;2023-01-15T02:45:29;98628.34;;;2.43;93.46
43707;BME280;61348;53.392;-6.248;2023-01-15T02:48:01;98636.97;;;2.45;93.23
43707;BME280;61348;53.392;-6.248;2023-01-15T02:50:35;98634.34;;;2.49;93.35
43707;BME280;61348;53.392;-6.248;2023-01-15T02:53:06;98631.72;;;2.53;93.42
43707;BME280;61348;53.392;-6.248;2023-01-15T02:55:37;98640.03;;;2.56;93.47
43707;BME280;61348;53.392;-6.248;2023-01-15T02:58:10;98611.69;;;2.61;93.35
43707;BME280;61348;53.392;-6.248;2023-01-15T03:00:43;98641.84;;;2.64;93.37
43707;BME280;61348;53.392;-6.248;2023-01-15T03:06:16;98632.25;;;2.70;93.24
43707;BME280;61348;53.392;-6.248;2023-01-15T03:08:44;98635.47;;;2.72;93.32
43707;BME280;61348;53.392;-6.248;2023-01-15T03:11:13;98626.09;;;2.73;93.31
43707;BME280;61348;53.392;-6.248;2023-01-15T03:16:15;98620.63;;;2.73;93.68
43707;BME280;61348;53.392;-6.248;2023-01-15T03:19:33;98622.91;;;2.71;93.50
43707;BME280;61348;53.392;-6.248;2023-01-15T03:22:07;98620.56;;;2.70;93.64
43707;BME280;61348;53.392;-6.248;2023-01-15T03:24:56;98610.38;;;2.70;93.79
43707;BME280;61348;53.392;-6.248;2023-01-15T03:27:26;98629.06;;;2.68;93.76
43707;BME280;61348;53.392;-6.248;2023-01-15T03:30:11;98632.25;;;2.70;93.72
43707;BME280;61348;53.392;-6.248;2023-01-15T03:32:38;98626.09;;;2.73;94.03
43707;BME280;61348;53.392;-6.248;2023-01-15T03:35:36;98625.41;;;2.76;93.95
43707;BME280;61348;53.392;-6.248;2023-01-15T03:37:53;98627.03;;;2.77;93.75
43707;BME280;61348;53.392;-6.248;2023-01-15T03:40:20;98625.09;;;2.78;94.17
43707;BME280;61348;53.392;-6.248;2023-01-15T03:42:56;98627.47;;;2.79;94.35
43707;BME280;61348;53.392;-6.248;2023-01-15T03:45:49;98631.78;;;2.80;94.47
43707;BME280;61348;53.392;-6.248;2023-01-15T03:48:29;98627.91;;;2.81;94.29
43707;BME280;61348;53.392;-6.248;2023-01-15T03:51:08;98621.31;;;2.82;94.17
43707;BME280;61348;53.392;-6.248;2023-01-15T03:53:57;98631.56;;;2.85;94.60
43707;BME280;61348;53.392;-6.248;2023-01-15T03:56:31;98634.72;;;2.87;94.20
43707;BME280;61348;53.392;-6.248;2023-01-15T03:59:12;98639.06;;;2.88;94.46
43707;BME280;61348;53.392;-6.248;2023-01-15T04:01:43;98623.09;;;2.90;94.39
43707;BME280;61348;53.392;-6.248;2023-01-15T04:04:12;98618.09;;;2.92;94.23
43707;BME280;61348;53.392;-6.248;2023-01-15T04:06:40;98617.28;;;2.92;94.46
43707;BME280;61348;53.392;-6.248;2023-01-15T04:09:09;98625.16;;;2.93;94.48
43707;BME280;61348;53.392;-6.248;2023-01-15T04:11:37;98625.16;;;2.93;94.68
43707;BME280;61348;53.392;-6.248;2023-01-15T04:14:04;98621.25;;;2.94;94.34
43707;BME280;61348;53.392;-6.248;2023-01-15T04:16:32;98629.94;;;2.96;94.44
43707;BME280;61348;53.392;-6.248;2023-01-15T04:19:00;98635.03;;;2.98;94.86
43707;BME280;61348;53.392;-6.248;2023-01-15T04:21:27;98641.75;;;3.00;94.84
43707;BME280;61348;53.392;-6.248;2023-01-15T04:23:53;98640.63;;;3.01;94.43
43707;BME280;61348;53.392;-6.248;2023-01-15T04:26:20;98641.06;;;3.03;94.64
43707;BME280;61348;53.392;-6.248;2023-01-15T04:28:47;98648.09;;;3.04;94.84
43707;BME280;61348;53.392;-6.248;2023-01-15T04:31:14;98639.56;;;3.06;94.66
43707;BME280;61348;53.392;-6.248;2023-01-15T04:33:41;98643.53;;;3.08;94.96
43707;BME280;61348;53.392;-6.248;2023-01-15T04:36:09;98634.22;;;3.10;94.84
43707;BME280;61348;53.392;-6.248;2023-01-15T04:38:36;98649.47;;;3.11;94.53
43707;BME280;61348;53.392;-6.248;2023-01-15T04:41:04;98646.72;;;3.11;94.95
43707;BME280;61348;53.392;-6.248;2023-01-15T04:43:50;98652.19;;;3.11;94.75
43707;BME280;61348;53.392;-6.248;2023-01-15T04:46:40;98635.78;;;3.11;94.96
43707;BME280;61348;53.392;-6.248;2023-01-15T04:49:10;98644.00;;;3.11;94.50
43707;BME280;61348;53.392;-6.248;2023-01-15T04:51:37;98646.72;;;3.11;94.68
43707;BME280;61348;53.392;-6.248;2023-01-15T04:54:06;98651.06;;;3.12;94.67
43707;BME280;61348;53.392;-6.248;2023-01-15T04:56:40;98653.78;;;3.12;94.51
43707;BME280;61348;53.392;-6.248;2023-01-15T04:59:07;98660.50;;;3.14;94.80
43707;BME280;61348;53.392;-6.248;2023-01-15T05:01:35;98647.63;;;3.15;94.59
43707;BME280;61348;53.392;-6.248;2023-01-15T05:04:02;98656.28;;;3.17;94.64
43707;BME280;61348;53.392;-6.248;2023-01-15T05:06:29;98642.59;;;3.17;94.85
43707;BME280;61348;53.392;-6.248;2023-01-15T05:08:57;98653.53;;;3.17;94.81
43707;BME280;61348;53.392;-6.248;2023-01-15T05:11:26;98658.66;;;3.18;94.68
43707;BME280;61348;53.392;-6.248;2023-01-15T05:13:53;98661.38;;;3.18;94.73
43707;BME280;61348;53.392;-6.248;2023-01-15T05:16:25;98672.00;;;3.20;95.09
43707;BME280;61348;53.392;-6.248;2023-01-15T05:18:54;98664.91;;;3.19;94.72
43707;BME280;61348;53.392;-6.248;2023-01-15T05:21:24;98664.91;;;3.19;94.61
43707;BME280;61348;53.392;-6.248;2023-01-15T05:23:53;98665.72;;;3.19;94.83
43707;BME280;61348;53.392;-6.248;2023-01-15T05:26:20;98671.19;;;3.19;94.80
43707;BME280;61348;53.392;-6.248;2023-01-15T05:28:47;98676.66;;;3.19;94.81
43707;BME280;61348;53.392;-6.248;2023-01-15T05:31:16;98675.06;;;3.18;94.80
43707;BME280;61348;53.392;-6.248;2023-01-15T05:33:45;98675.84;;;3.19;95.11
43707;BME280;61348;53.392;-6.248;2023-01-15T05:36:14;98676.22;;;3.17;95.11
43707;BME280;61348;53.392;-6.248;2023-01-15T05:38:42;98669.94;;;3.17;94.83
43707;BME280;61348;53.392;-6.248;2023-01-15T05:41:11;98675.06;;;3.18;95.03
43707;BME280;61348;53.392;-6.248;2023-01-15T05:44:00;98672.69;;;3.17;94.91
43707;BME280;61348;53.392;-6.248;2023-01-15T05:46:27;98674.28;;;3.18;95.12
43707;BME280;61348;53.392;-6.248;2023-01-15T05:49:01;98675.06;;;3.18;94.72
43707;BME280;61348;53.392;-6.248;2023-01-15T05:51:28;98671.19;;;3.19;94.75
43707;BME280;61348;53.392;-6.248;2023-01-15T05:53:57;98677.47;;;3.20;95.13
43707;BME280;61348;53.392;-6.248;2023-01-15T05:56:23;98692.38;;;3.22;95.03
43707;BME280;61348;53.392;-6.248;2023-01-15T05:58:50;98694.75;;;3.24;95.10
43707;BME280;61348;53.392;-6.248;2023-01-15T06:01:17;98704.56;;;3.25;94.93
43707;BME280;61348;53.392;-6.248;2023-01-15T06:03:44;98703.41;;;3.26;94.67
43707;BME280;61348;53.392;-6.248;2023-01-15T06:06:16;98701.81;;;3.25;94.68
43707;BME280;61348;53.392;-6.248;2023-01-15T06:08:44;98705.00;;;3.27;94.83
43707;BME280;61348;53.392;-6.248;2023-01-15T06:11:11;98715.94;;;3.27;94.73
43707;BME280;61348;53.392;-6.248;2023-01-15T06:13:38;98715.13;;;3.26;94.79
43707;BME280;61348;53.392;-6.248;2023-01-15T06:16:07;98723.00;;;3.28;94.63
43707;BME280;61348;53.392;-6.248;2023-01-15T06:18:33;98713.66;;;3.29;94.91
43707;BME280;61348;53.392;-6.248;2023-01-15T06:21:11;98721.09;;;3.28;94.65
43707;BME280;61348;53.392;-6.248;2023-01-15T06:23:39;98731.22;;;3.28;94.98
43707;BME280;61348;53.392;-6.248;2023-01-15T06:26:15;98737.50;;;3.28;94.83
43707;BME280;61348;53.392;-6.248;2023-01-15T06:28:42;98753.53;;;3.30;95.02
43707;BME280;61348;53.392;-6.248;2023-01-15T06:31:11;98741.78;;;3.29;94.70
43707;BME280;61348;53.392;-6.248;2023-01-15T06:33:38;98746.47;;;3.29;94.79
43707;BME280;61348;53.392;-6.248;2023-01-15T06:36:08;98756.63;;;3.28;95.07
43707;BME280;61348;53.392;-6.248;2023-01-15T06:38:35;98753.41;;;3.26;95.28
43707;BME280;61348;53.392;-6.248;2023-01-15T06:41:04;98762.78;;;3.25;95.19
43707;BME280;61348;53.392;-6.248;2023-01-15T06:43:51;98770.19;;;3.25;95.31
43707;BME280;61348;53.392;-6.248;2023-01-15T06:46:41;98765.84;;;3.24;95.11
43707;BME280;61348;53.392;-6.248;2023-01-15T06:49:29;98770.88;;;3.22;95.36
43707;BME280;61348;53.392;-6.248;2023-01-15T06:51:56;98786.47;;;3.21;95.30
43707;BME280;61348;53.392;-6.248;2023-01-15T06:54:22;98788.41;;;3.21;95.39
43707;BME280;61348;53.392;-6.248;2023-01-15T06:56:49;98784.44;;;3.18;95.58
43707;BME280;61348;53.392;-6.248;2023-01-15T06:59:17;98782.84;;;3.17;95.45
43707;BME280;61348;53.392;-6.248;2023-01-15T07:01:44;98795.72;;;3.17;95.80
43707;BME280;61348;53.392;-6.248;2023-01-15T07:04:13;98792.19;;;3.16;95.91
43707;BME280;61348;53.392;-6.248;2023-01-15T07:06:39;98794.13;;;3.16;95.88
43707;BME280;61348;53.392;-6.248;2023-01-15T07:09:06;98790.94;;;3.14;95.87
43707;BME280;61348;53.392;-6.248;2023-01-15T07:11:34;98801.41;;;3.12;95.93
43707;BME280;61348;53.392;-6.248;2023-01-15T07:14:00;98814.66;;;3.10;96.20
43707;BME280;61348;53.392;-6.248;2023-01-15T07:16:36;98810.31;;;3.08;96.25
43707;BME280;61348;53.392;-6.248;2023-01-15T07:19:03;98805.53;;;3.05;96.02
43707;BME280;61348;53.392;-6.248;2023-01-15T07:21:29;98812.59;;;3.06;96.13
43707;BME280;61348;53.392;-6.248;2023-01-15T07:24:00;98819.19;;;3.05;96.41
43707;BME280;61348;53.392;-6.248;2023-01-15T07:26:27;98825.47;;;3.06;96.33
43707;BME280;61348;53.392;-6.248;2023-01-15T07:28:53;98830.94;;;3.06;96.49
43707;BME280;61348;53.392;-6.248;2023-01-15T07:31:22;98832.84;;;3.05;96.87
43707;BME280;61348;53.392;-6.248;2023-01-15T07:33:49;98832.84;;;3.05;96.56
43707;BME280;61348;53.392;-6.248;2023-01-15T07:36:16;98829.31;;;3.05;96.85
43707;BME280;61348;53.392;-6.248;2023-01-15T07:38:43;98841.06;;;3.05;96.79
43707;BME280;61348;53.392;-6.248;2023-01-15T07:41:10;98843.78;;;3.05;97.15
43707;BME280;61348;53.392;-6.248;2023-01-15T07:43:55;98849.25;;;3.05;97.02
43707;BME280;61348;53.392;-6.248;2023-01-15T07:46:40;98849.72;;;3.07;97.16
43707;BME280;61348;53.392;-6.248;2023-01-15T07:49:26;98853.25;;;3.08;97.13
43707;BME280;61348;53.392;-6.248;2023-01-15T07:52:17;98852.91;;;3.10;96.97
43707;BME280;61348;53.392;-6.248;2023-01-15T07:54:46;98859.97;;;3.11;97.18
43707;BME280;61348;53.392;-6.248;2023-01-15T07:57:15;98856.09;;;3.12;97.14
43707;BME280;61348;53.392;-6.248;2023-01-15T07:59:43;98859.28;;;3.14;97.61
43707;BME280;61348;53.392;-6.248;2023-01-15T08:02:10;98857.34;;;3.14;97.47
43707;BME280;61348;53.392;-6.248;2023-01-15T08:04:38;98858.94;;;3.15;97.69
43707;BME280;61348;53.392;-6.248;2023-01-15T08:07:09;98858.16;;;3.15;97.61
43707;BME280;61348;53.392;-6.248;2023-01-15T08:09:36;98866.81;;;3.17;97.65
43707;BME280;61348;53.392;-6.248;2023-01-15T08:12:03;98878.06;;;3.15;97.75
43707;BME280;61348;53.392;-6.248;2023-01-15T08:14:49;98878.88;;;3.16;97.63
43707;BME280;61348;53.392;-6.248;2023-01-15T08:17:35;98883.53;;;3.15;97.71
43707;BME280;61348;53.392;-6.248;2023-01-15T08:20:14;98884.34;;;3.16;98.13
43707;BME280;61348;53.392;-6.248;2023-01-15T08:22:41;98891.41;;;3.17;97.89
43707;BME280;61348;53.392;-6.248;2023-01-15T08:25:12;98895.28;;;3.16;98.10
43707;BME280;61348;53.392;-6.248;2023-01-15T08:27:39;98901.53;;;3.16;97.98
43707;BME280;61348;53.392;-6.248;2023-01-15T08:30:12;98903.16;;;3.17;98.03
43707;BME280;61348;53.392;-6.248;2023-01-15T08:32:39;98896.06;;;3.16;98.37
43707;BME280;61348;53.392;-6.248;2023-01-15T08:35:06;98899.63;;;3.17;98.26
43707;BME280;61348;53.392;-6.248;2023-01-15T08:37:33;98900.75;;;3.16;98.30
43707;BME280;61348;53.392;-6.248;2023-01-15T08:40:00;98901.53;;;3.16;98.67
43707;BME280;61348;53.392;-6.248;2023-01-15T08:42:27;98893.69;;;3.15;98.55
43707;BME280;61348;53.392;-6.248;2023-01-15T08:44:54;98908.50;;;3.14;98.36
43707;BME280;61348;53.392;-6.248;2023-01-15T08:47:21;98908.50;;;3.14;98.53
43707;BME280;61348;53.392;-6.248;2023-01-15T08:49:49;98906.88;;;3.13;98.94
43707;BME280;61348;53.392;-6.248;2023-01-15T08:52:17;98918.97;;;3.12;98.97
43707;BME280;61348;53.392;-6.248;2023-01-15T08:54:43;98920.09;;;3.11;98.83
43707;BME280;61348;53.392;-6.248;2023-01-15T08:57:10;98929.91;;;3.12;98.64
43707;BME280;61348;53.392;-6.248;2023-01-15T08:59:39;98935.84;;;3.14;99.18
43707;BME280;61348;53.392;-6.248;2023-01-15T09:02:11;98931.16;;;3.14;99.06
43707;BME280;61348;53.392;-6.248;2023-01-15T09:04:39;98940.94;;;3.15;99.01
43707;BME280;61348;53.392;-6.248;2023-01-15T09:07:06;98935.84;;;3.14;98.74
43707;BME280;61348;53.392;-6.248;2023-01-15T09:09:33;98949.06;;;3.12;99.00
43707;BME280;61348;53.392;-6.248;2023-01-15T09:12:00;98949.06;;;3.12;98.84
43707;BME280;61348;53.392;-6.248;2023-01-15T09:14:27;98948.25;;;3.11;99.03
43707;BME280;61348;53.392;-6.248;2023-01-15T09:17:13;98965.91;;;3.14;99.43
43707;BME280;61348;53.392;-6.248;2023-01-15T09:19:40;98958.84;;;3.13;99.05
43707;BME280;61348;53.392;-6.248;2023-01-15T09:22:07;98972.19;;;3.14;99.39
43707;BME280;61348;53.392;-6.248;2023-01-15T09:24:33;98963.63;;;3.16;99.55
43707;BME280;61348;53.392;-6.248;2023-01-15T09:27:00;98970.72;;;3.17;99.26
43707;BME280;61348;53.392;-6.248;2023-01-15T09:29:27;98969.59;;;3.18;99.54
43707;BME280;61348;53.392;-6.248;2023-01-15T09:31:53;98971.16;;;3.19;99.54
43707;BME280;61348;53.392;-6.248;2023-01-15T09:34:20;98970.84;;;3.20;99.48
43707;BME280;61348;53.392;-6.248;2023-01-15T09:36:47;98973.22;;;3.22;99.30
43707;BME280;61348;53.392;-6.248;2023-01-15T09:39:13;98979.13;;;3.24;99.50
43707;BME280;61348;53.392;-6.248;2023-01-15T09:45:09;98984.88;;;3.31;99.45
43707;BME280;61348;53.392;-6.248;2023-01-15T09:50:22;99010.16;;;3.40;99.89
43707;BME280;61348;53.392;-6.248;2023-01-15T09:55:29;99001.72;;;3.45;99.45
43707;BME280;61348;53.392;-6.248;2023-01-15T09:57:59;98999.44;;;3.47;99.78
43707;BME280;61348;53.392;-6.248;2023-01-15T10:00:33;99002.66;;;3.49;99.72
43707;BME280;61348;53.392;-6.248;2023-01-15T10:03:34;99006.28;;;3.53;99.98
43707;BME280;61348;53.392;-6.248;2023-01-15T10:06:23;99011.09;;;3.56;99.75
43707;BME280;61348;53.392;-6.248;2023-01-15T10:09:20;99006.06;;;3.58;99.98
43707;BME280;61348;53.392;-6.248;2023-01-15T10:11:46;99025.72;;;3.60;100.00
43707;BME280;61348;53.392;-6.248;2023-01-15T10:14:52;99008.94;;;3.61;100.00
43707;BME280;61348;53.392;-6.248;2023-01-15T10:17:24;99005.84;;;3.63;99.91
43707;BME280;61348;53.392;-6.248;2023-01-15T10:19:52;99009.84;;;3.65;99.81
43707;BME280;61348;53.392;-6.248;2023-01-15T10:22:27;99010.75;;;3.69;99.64
43707;BME280;61348;53.392;-6.248;2023-01-15T10:24:57;99012.91;;;3.76;100.00
43707;BME280;61348;53.392;-6.248;2023-01-15T10:27:29;99001.41;;;3.83;100.00
43707;BME280;61348;53.392;-6.248;2023-01-15T10:30:17;99012.47;;;3.86;99.99
43707;BME280;61348;53.392;-6.248;2023-01-15T10:32:50;99011.44;;;3.91;100.00
43707;BME280;61348;53.392;-6.248;2023-01-15T10:35:51;99011.22;;;3.96;99.59
43707;BME280;61348;53.392;-6.248;2023-01-15T10:38:58;99024.53;;;3.97;99.95
43707;BME280;61348;53.392;-6.248;2023-01-15T10:44:19;99011.31;;;3.99;99.73
43707;BME280;61348;53.392;-6.248;2023-01-15T10:46:55;99021.03;;;3.97;99.84
43707;BME280;61348;53.392;-6.248;2023-01-15T10:49:27;99020.22;;;3.96;99.86
43707;BME280;61348;53.392;-6.248;2023-01-15T10:51:57;99023.84;;;4.00;100.00
43707;BME280;61348;53.392;-6.248;2023-01-15T10:54:38;99015.88;;;4.07;100.00
43707;BME280;61348;53.392;-6.248;2023-01-15T10:59:59;99025.44;;;4.25;100.00
43707;BME280;61348;53.392;-6.248;2023-01-15T11:04:56;99025.84;;;4.40;99.85
43707;BME280;61348;53.392;-6.248;2023-01-15T11:07:42;99033.63;;;4.38;99.71
43707;BME280;61348;53.392;-6.248;2023-01-15T11:10:31;99036.81;;;4.40;99.69
43707;BME280;61348;53.392;-6.248;2023-01-15T11:13:20;99042.97;;;4.49;100.00
43707;BME280;61348;53.392;-6.248;2023-01-15T11:16:18;99031.31;;;4.52;99.95
43707;BME280;61348;53.392;-6.248;2023-01-15T11:19:26;99033.25;;;4.51;99.89
43707;BME280;61348;53.392;-6.248;2023-01-15T11:22:15;99023.78;;;4.49;99.91
43707;BME280;61348;53.392;-6.248;2023-01-15T11:24:51;99031.44;;;4.43;99.62
43707;BME280;61348;53.392;-6.248;2023-01-15T11:27:22;99023.59;;;4.42;100.00
43707;BME280;61348;53.392;-6.248;2023-01-15T11:29:55;99035.00;;;4.44;99.93
43707;BME280;61348;53.392;-6.248;2023-01-15T11:34:52;99039.66;;;4.43;100.00
43707;BME280;61348;53.392;-6.248;2023-01-15T11:37:19;99039.34;;;4.45;99.97
43707;BME280;61348;53.392;-6.248;2023-01-15T11:39:59;99031.13;;;4.45;100.00
43707;BME280;61348;53.392;-6.248;2023-01-15T11:42:32;99024.03;;;4.44;100.00
43707;BME280;61348;53.392;-6.248;2023-01-15T11:45:28;99021.28;;;4.44;100.00
43707;BME280;61348;53.392;-6.248;2023-01-15T11:48:21;99021.72;;;4.46;100.00
43707;BME280;61348;53.392;-6.248;2023-01-15T11:53:40;99018.31;;;4.49;100.00
43707;BME280;61348;53.392;-6.248;2023-01-15T11:56:14;99007.78;;;4.51;100.00
43707;BME280;61348;53.392;-6.248;2023-01-15T11:58:47;99022.41;;;4.55;100.00
43707;BME280;61348;53.392;-6.248;2023-01-15T12:01:23;99020.31;;;4.64;100.00
43707;BME280;61348;53.392;-6.248;2023-01-15T12:03:54;99013.44;;;4.70;100.00
43707;BME280;61348;53.392;-6.248;2023-01-15T12:06:21;99020.53;;;4.71;100.00
43707;BME280;61348;53.392;-6.248;2023-01-15T12:09:03;99003.59;;;4.69;100.00
43707;BME280;61348;53.392;-6.248;2023-01-15T12:12:02;99014.94;;;4.67;100.00
43707;BME280;61348;53.392;-6.248;2023-01-15T12:14:52;99019.50;;;4.63;100.00
43707;BME280;61348;53.392;-6.248;2023-01-15T12:20:38;99014.63;;;4.57;100.00
43707;BME280;61348;53.392;-6.248;2023-01-15T12:34:22;98994.50;;;4.65;100.00
43707;BME280;61348;53.392;-6.248;2023-01-15T12:37:04;98989.91;;;4.69;100.00
43707;BME280;61348;53.392;-6.248;2023-01-15T12:39:51;98996.75;;;4.75;100.00
43707;BME280;61348;53.392;-6.248;2023-01-15T12:42:21;98985.19;;;4.81;100.00
43707;BME280;61348;53.392;-6.248;2023-01-15T12:45:15;98995.34;;;4.81;100.00
43707;BME280;61348;53.392;-6.248;2023-01-15T12:47:51;98985.53;;;4.80;100.00
43707;BME280;61348;53.392;-6.248;2023-01-15T12:53:33;98980.28;;;4.75;100.00
43707;BME280;61348;53.392;-6.248;2023-01-15T12:58:59;98980.28;;;4.75;100.00
43707;BME280;61348;53.392;-6.248;2023-01-15T13:04:30;98983.84;;;4.75;100.00
43707;BME280;61348;53.392;-6.248;2023-01-15T13:07:04;98974.13;;;4.78;100.00
43707;BME280;61348;53.392;-6.248;2023-01-15T13:09:43;98978.47;;;4.79;100.00
43707;BME280;61348;53.392;-6.248;2023-01-15T13:12:13;98973.75;;;4.79;100.00
43707;BME280;61348;53.392;-6.248;2023-01-15T13:14:40;98974.56;;;4.80;100.00
43707;BME280;61348;53.392;-6.248;2023-01-15T13:17:28;98968.75;;;4.81;100.00
43707;BME280;61348;53.392;-6.248;2023-01-15T13:20:24;98967.56;;;4.82;100.00
43707;BME280;61348;53.392;-6.248;2023-01-15T13:26:03;98967.94;;;4.81;100.00
43707;BME280;61348;53.392;-6.248;2023-01-15T13:36:45;98959.00;;;4.84;100.00
43707;BME280;61348;53.392;-6.248;2023-01-15T13:39:18;98955.47;;;4.83;100.00
43707;BME280;61348;53.392;-6.248;2023-01-15T13:41:51;98952.72;;;4.83;100.00
43707;BME280;61348;53.392;-6.248;2023-01-15T13:44:45;98950.78;;;4.84;100.00
43707;BME280;61348;53.392;-6.248;2023-01-15T13:47:18;98949.19;;;4.83;100.00
43707;BME280;61348;53.392;-6.248;2023-01-15T13:49:52;98944.13;;;4.85;100.00
43707;BME280;61348;53.392;-6.248;2023-01-15T13:52:25;98937.53;;;4.86;100.00
43707;BME280;61348;53.392;-6.248;2023-01-15T13:54:56;98932.38;;;4.84;100.00
43707;BME280;61348;53.392;-6.248;2023-01-15T13:57:33;98929.63;;;4.84;100.00
43707;BME280;61348;53.392;-6.248;2023-01-15T14:00:05;98923.81;;;4.86;100.00
43707;BME280;61348;53.392;-6.248;2023-01-15T14:02:36;98921.50;;;4.88;100.00
43707;BME280;61348;53.392;-6.248;2023-01-15T14:07:53;98908.34;;;4.93;100.00
43707;BME280;61348;53.392;-6.248;2023-01-15T14:10:32;98908.44;;;4.97;100.00
43707;BME280;61348;53.392;-6.248;2023-01-15T14:13:22;98895.16;;;4.99;100.00
43707;BME280;61348;53.392;-6.248;2023-01-15T14:18:58;98899.84;;;4.99;100.00
43707;BME280;61348;53.392;-6.248;2023-01-15T14:25:01;98884.91;;;4.96;100.00
43707;BME280;61348;53.392;-6.248;2023-01-15T14:36:17;98870.06;;;4.97;100.00
43707;BME280;61348;53.392;-6.248;2023-01-15T14:38:49;98852.00;;;4.96;100.00
43707;BME280;61348;53.392;-6.248;2023-01-15T14:41:29;98853.59;;;4.97;100.00
43707;BME280;61348;53.392;-6.248;2023-01-15T14:43:58;98843.50;;;5.01;100.00
43707;BME280;61348;53.392;-6.248;2023-01-15T14:46:33;98845.09;;;5.02;100.00
43707;BME280;61348;53.392;-6.248;2023-01-15T14:49:02;98842.00;;;5.04;100.00
43707;BME280;61348;53.392;-6.248;2023-01-15T14:51:46;98843.94;;;5.03;100.00
43707;BME280;61348;53.392;-6.248;2023-01-15T14:54:17;98840.41;;;5.03;100.00
43707;BME280;61348;53.392;-6.248;2023-01-15T14:56:50;98837.22;;;5.01;100.00
43707;BME280;61348;53.392;-6.248;2023-01-15T14:59:23;98830.06;;;4.96;100.00
43707;BME280;61348;53.392;-6.248;2023-01-15T15:01:54;98835.91;;;4.95;100.00